createdAt,value
2017-08-25T00:00:14.900Z,79.70
2017-08-25T00:02:40.675Z,77.94
2017-08-25T00:05:06.477Z,78.03
2017-08-25T00:07:32.229Z,78.54
2017-08-25T00:09:57.984Z,77.95
2017-08-25T00:12:23.756Z,77.94
2017-08-25T00:14:49.595Z,78.01
2017-08-25T00:17:15.380Z,78.87
2017-08-25T00:19:41.138Z,77.66
2017-08-25T00:22:06.904Z,81.53
2017-08-25T00:24:32.677Z,79.84
2017-08-25T00:26:58.490Z,80.14
2017-08-25T00:29:24.233Z,80.89
2017-08-25T00:31:49.991Z,81.08
2017-08-25T00:34:15.803Z,80.21
2017-08-25T00:36:41.568Z,79.96
2017-08-25T00:39:07.317Z,79.98
2017-08-25T00:41:33.123Z,79.92
2017-08-25T00:43:58.903Z,80.85
2017-08-25T00:46:24.701Z,80.28
2017-08-25T00:48:50.479Z,81.20
2017-08-25T00:51:16.241Z,83.36
2017-08-25T00:53:42.055Z,84.41
2017-08-25T00:56:07.938Z,84.21
2017-08-25T00:58:33.730Z,82.34
2017-08-25T01:00:59.517Z,81.50
2017-08-25T01:03:25.270Z,81.20
2017-08-25T01:05:51.088Z,81.06
2017-08-25T01:08:16.856Z,82.11
2017-08-25T01:10:42.625Z,82.75
2017-08-25T01:13:08.438Z,82.23
2017-08-25T01:15:34.212Z,82.04
2017-08-25T01:18:00.038Z,81.74
2017-08-25T01:20:25.824Z,80.91
2017-08-25T01:22:51.598Z,81.23
2017-08-25T01:25:17.425Z,80.77
2017-08-25T01:27:43.221Z,81.62
2017-08-25T01:30:08.996Z,81.18
2017-08-25T01:32:34.795Z,80.83
2017-08-25T01:35:00.558Z,82.04
2017-08-25T01:37:26.311Z,82.72
2017-08-25T01:39:52.116Z,83.71
2017-08-25T01:42:17.955Z,82.01
2017-08-25T01:44:43.732Z,81.01
2017-08-25T01:47:09.491Z,81.15
2017-08-25T01:49:35.300Z,81.08
2017-08-25T01:52:01.075Z,81.35
2017-08-25T01:54:26.839Z,81.58
2017-08-25T01:56:52.623Z,82.33
2017-08-25T01:59:18.442Z,82.47
2017-08-25T02:01:44.218Z,82.65
2017-08-25T02:04:09.983Z,82.10
2017-08-25T02:06:35.774Z,81.86
2017-08-25T02:09:01.559Z,81.94
2017-08-25T02:11:27.335Z,81.69
2017-08-25T02:13:53.155Z,81.93
2017-08-25T02:16:18.963Z,82.29
2017-08-25T02:18:44.761Z,81.94
2017-08-25T02:21:10.634Z,82.22
2017-08-25T02:23:36.427Z,82.11
2017-08-25T02:26:02.188Z,82.51
2017-08-25T02:28:28.001Z,82.27
2017-08-25T02:30:53.787Z,82.90
2017-08-25T02:33:19.626Z,82.48
2017-08-25T02:35:45.377Z,87.01
2017-08-25T02:38:11.156Z,86.77
2017-08-25T02:40:37.014Z,85.18
2017-08-25T02:43:02.795Z,84.78
2017-08-25T02:45:28.561Z,84.16
2017-08-25T02:47:54.351Z,85.32
2017-08-25T02:50:20.171Z,84.08
2017-08-25T02:52:45.936Z,84.39
2017-08-25T02:55:11.709Z,85.97
2017-08-25T02:57:37.490Z,85.82
2017-08-25T03:00:03.278Z,85.30
2017-08-25T03:02:29.063Z,84.82
2017-08-25T03:04:54.842Z,85.31
2017-08-25T03:07:20.592Z,84.74
2017-08-25T03:09:46.528Z,84.53
2017-08-25T03:12:12.287Z,84.89
2017-08-25T03:14:38.053Z,85.74
2017-08-25T03:17:03.882Z,86.48
2017-08-25T03:19:29.640Z,85.83
2017-08-25T03:21:55.426Z,84.81
2017-08-25T03:24:21.239Z,84.61
2017-08-25T03:26:47.035Z,84.29
2017-08-25T03:29:12.835Z,84.21
2017-08-25T03:31:38.611Z,84.50
2017-08-25T03:34:04.378Z,84.21
2017-08-25T03:36:30.143Z,83.79
2017-08-25T03:38:55.947Z,83.58
2017-08-25T03:41:21.752Z,83.68
2017-08-25T03:43:47.512Z,84.34
2017-08-25T03:46:13.271Z,84.93
2017-08-25T03:48:39.061Z,84.37
2017-08-25T03:51:04.811Z,84.19
2017-08-25T03:53:30.611Z,84.63
2017-08-25T03:55:56.423Z,84.68
2017-08-25T03:58:22.179Z,84.87
2017-08-25T04:00:47.970Z,84.77
2017-08-25T04:03:13.796Z,84.90
2017-08-25T04:05:39.624Z,84.95
2017-08-25T04:08:05.383Z,84.45
2017-08-25T04:10:31.207Z,83.97
2017-08-25T04:12:56.943Z,84.98
2017-08-25T04:15:22.703Z,85.18
2017-08-25T04:17:48.483Z,85.49
2017-08-25T04:20:14.242Z,85.68
2017-08-25T04:22:40.068Z,85.22
2017-08-25T04:25:05.854Z,85.08
2017-08-25T04:27:31.652Z,84.70
2017-08-25T04:29:57.506Z,84.89
2017-08-25T04:32:23.319Z,84.56
2017-08-25T04:34:49.118Z,84.69
2017-08-25T04:37:14.911Z,85.07
2017-08-25T04:39:40.763Z,85.69
2017-08-25T04:42:08.288Z,86.00
2017-08-25T04:44:34.157Z,85.51
2017-08-25T04:46:59.999Z,86.09
2017-08-25T04:49:25.803Z,86.55
2017-08-25T04:51:51.659Z,85.33
2017-08-25T04:54:17.433Z,84.44
2017-08-25T04:56:43.268Z,84.38
2017-08-25T04:59:09.743Z,84.97
2017-08-25T05:01:35.534Z,85.30
2017-08-25T05:04:01.379Z,84.51
2017-08-25T05:06:27.168Z,83.75
2017-08-25T05:08:53.046Z,84.73
2017-08-25T05:11:18.796Z,84.27
2017-08-25T05:13:44.659Z,85.18
2017-08-25T05:16:10.511Z,86.08
2017-08-25T05:18:36.583Z,86.60
2017-08-25T05:21:02.356Z,85.63
2017-08-25T05:23:28.144Z,85.32
2017-08-25T05:25:53.992Z,84.70
2017-08-25T05:28:19.828Z,82.99
2017-08-25T05:30:45.675Z,83.63
2017-08-25T05:33:11.463Z,84.45
2017-08-25T05:35:37.310Z,83.60
2017-08-25T05:38:03.170Z,84.97
2017-08-25T05:40:28.913Z,84.91
2017-08-25T05:42:54.775Z,84.34
2017-08-25T05:45:20.585Z,83.40
2017-08-25T05:47:46.335Z,83.94
2017-08-25T05:50:12.099Z,82.61
2017-08-25T05:52:37.895Z,84.66
2017-08-25T05:55:03.684Z,83.08
2017-08-25T05:57:29.435Z,82.68
2017-08-25T05:59:55.231Z,82.95
2017-08-25T06:02:20.978Z,83.14
2017-08-25T06:04:46.782Z,81.69
2017-08-25T06:07:12.578Z,81.17
2017-08-25T06:09:38.392Z,81.02
2017-08-25T06:12:04.147Z,80.21
2017-08-25T06:14:29.912Z,79.87
2017-08-25T06:16:55.706Z,78.64
2017-08-25T06:19:21.463Z,76.89
2017-08-25T06:21:47.270Z,77.42
2017-08-25T06:24:13.050Z,77.77
2017-08-25T06:26:38.808Z,76.79
2017-08-25T06:29:04.598Z,76.69
2017-08-25T06:31:30.343Z,77.07
2017-08-25T06:33:56.217Z,75.98
2017-08-25T06:36:21.999Z,74.20
2017-08-25T06:38:47.787Z,73.81
2017-08-25T06:41:13.546Z,73.71
2017-08-25T06:43:39.327Z,71.94
2017-08-25T06:46:05.123Z,71.43
2017-08-25T06:48:30.935Z,70.73
2017-08-25T06:50:56.740Z,69.99
2017-08-25T06:53:22.525Z,70.16
2017-08-25T06:55:48.281Z,70.20
2017-08-25T06:58:14.119Z,69.23
2017-08-25T07:00:39.958Z,68.46
2017-08-25T07:03:05.810Z,69.29
2017-08-25T07:05:31.595Z,67.00
2017-08-25T07:07:57.407Z,66.74
2017-08-25T07:10:23.204Z,64.85
2017-08-25T07:12:48.957Z,63.15
2017-08-25T07:15:14.706Z,62.85
2017-08-25T07:17:40.482Z,60.91
2017-08-25T07:20:06.243Z,61.97
2017-08-25T07:22:31.995Z,59.47
2017-08-25T07:24:57.815Z,58.96
2017-08-25T07:27:23.563Z,59.53
2017-08-25T07:29:49.326Z,59.23
2017-08-25T07:32:15.191Z,56.43
2017-08-25T07:34:40.937Z,55.08
2017-08-25T07:37:06.851Z,54.54
2017-08-25T07:39:32.612Z,54.11
2017-08-25T07:41:58.501Z,56.43
2017-08-25T07:44:24.299Z,55.58
2017-08-25T07:46:50.084Z,52.81
2017-08-25T07:49:15.909Z,53.24
2017-08-25T07:51:41.704Z,50.01
2017-08-25T07:54:07.460Z,50.60
2017-08-25T07:56:33.341Z,51.94
2017-08-25T07:58:59.109Z,50.42
2017-08-25T08:01:24.911Z,52.37
2017-08-25T08:03:50.708Z,53.62
2017-08-25T08:06:16.459Z,52.73
2017-08-25T08:08:42.322Z,51.15
2017-08-25T08:11:08.109Z,52.58
2017-08-25T08:13:33.891Z,52.10
2017-08-25T08:15:59.655Z,53.34
2017-08-25T08:18:25.427Z,53.06
2017-08-25T08:20:51.231Z,52.47
2017-08-25T08:23:17.032Z,52.93
2017-08-25T08:25:42.799Z,51.50
2017-08-25T08:28:08.638Z,53.45
2017-08-25T08:30:34.390Z,52.55
2017-08-25T08:33:00.187Z,53.49
2017-08-25T08:35:26.022Z,54.02
2017-08-25T08:37:51.809Z,52.47
2017-08-25T08:40:17.584Z,54.15
2017-08-25T08:42:43.360Z,53.65
2017-08-25T08:45:09.147Z,52.85
2017-08-25T08:47:34.931Z,52.22
2017-08-25T08:50:00.695Z,51.25
2017-08-25T08:52:26.493Z,51.32
2017-08-25T08:54:53.216Z,51.35
2017-08-25T08:57:19.035Z,51.85
2017-08-25T08:59:44.838Z,49.96
2017-08-25T09:02:10.688Z,51.33
2017-08-25T09:04:36.470Z,50.40
2017-08-25T09:07:02.231Z,49.60
2017-08-25T09:09:28.032Z,50.14
2017-08-25T09:11:53.863Z,50.12
2017-08-25T09:14:19.715Z,48.37
2017-08-25T09:16:45.512Z,47.67
2017-08-25T09:19:11.303Z,49.21
2017-08-25T09:21:37.073Z,47.11
2017-08-25T09:24:02.992Z,46.72
2017-08-25T09:26:28.820Z,45.78
2017-08-25T09:28:54.614Z,46.29
2017-08-25T09:31:20.462Z,47.03
2017-08-25T09:33:46.469Z,48.62
2017-08-25T09:36:12.309Z,47.56
2017-08-25T09:38:38.159Z,47.47
2017-08-25T09:41:03.918Z,48.60
2017-08-25T09:43:29.735Z,46.17
2017-08-25T09:45:55.627Z,47.12
2017-08-25T09:48:21.413Z,47.56
2017-08-25T09:50:47.197Z,46.55
2017-08-25T09:53:12.971Z,43.46
2017-08-25T09:55:38.914Z,45.81
2017-08-25T09:58:04.887Z,43.14
2017-08-25T10:00:30.751Z,43.51
2017-08-25T10:02:56.554Z,43.61
2017-08-25T10:05:22.358Z,44.81
2017-08-25T10:07:48.121Z,44.45
2017-08-25T10:10:13.945Z,44.58
2017-08-25T10:12:39.745Z,46.38
2017-08-25T10:15:05.503Z,45.26
2017-08-25T10:17:31.291Z,44.10
2017-08-25T10:19:57.054Z,43.42
2017-08-25T10:22:22.928Z,43.33
2017-08-25T10:24:48.721Z,43.11
2017-08-25T10:27:14.538Z,43.27
2017-08-25T10:29:40.302Z,45.19
2017-08-25T10:32:06.126Z,43.80
2017-08-25T10:34:44.299Z,44.10
2017-08-25T10:37:22.379Z,45.06
2017-08-25T10:40:00.572Z,44.25
2017-08-25T10:42:38.727Z,44.12
2017-08-25T10:45:14.531Z,44.23
2017-08-25T10:47:40.351Z,42.81
2017-08-25T10:50:06.203Z,40.85
2017-08-25T10:52:31.983Z,45.37
2017-08-25T10:54:58.292Z,42.79
2017-08-25T10:57:24.156Z,41.41
2017-08-25T10:59:49.952Z,38.42
2017-08-25T11:02:15.743Z,40.52
2017-08-25T11:04:41.562Z,41.38
2017-08-25T11:07:07.311Z,41.90
2017-08-25T11:09:33.102Z,44.73
2017-08-25T11:11:58.876Z,44.31
2017-08-25T11:14:24.650Z,42.84
2017-08-25T11:16:50.518Z,42.89
2017-08-25T11:19:16.286Z,40.32
2017-08-25T11:21:42.031Z,44.15
2017-08-25T11:24:07.949Z,39.07
2017-08-25T11:26:33.899Z,35.97
2017-08-25T11:28:59.702Z,37.90
2017-08-25T11:31:25.459Z,34.96
2017-08-25T11:33:51.322Z,35.84
2017-08-25T11:36:17.077Z,37.79
2017-08-25T11:38:42.877Z,37.57
2017-08-25T11:41:08.735Z,37.88
2017-08-25T11:43:34.506Z,35.64
2017-08-25T11:46:00.339Z,35.72
2017-08-25T11:48:26.101Z,39.60
2017-08-25T11:50:51.920Z,40.37
2017-08-25T11:53:17.694Z,39.95
2017-08-25T11:55:43.526Z,40.66
2017-08-25T11:58:09.312Z,39.48
2017-08-25T12:00:35.122Z,40.61
2017-08-25T12:03:00.934Z,37.72
2017-08-25T12:05:26.759Z,38.18
2017-08-25T12:07:52.538Z,39.45
2017-08-25T12:10:18.344Z,39.03
2017-08-25T12:12:44.119Z,36.57
2017-08-25T12:15:09.942Z,34.68
2017-08-25T12:17:35.705Z,35.82
2017-08-25T12:20:01.479Z,38.46
2017-08-25T12:22:27.241Z,33.99
2017-08-25T12:24:53.047Z,40.33
2017-08-25T12:27:19.580Z,39.91
2017-08-25T12:29:45.331Z,35.81
2017-08-25T12:32:11.111Z,34.29
2017-08-25T12:34:36.903Z,33.76
2017-08-25T12:37:02.750Z,36.78
2017-08-25T12:39:28.545Z,34.21
2017-08-25T12:41:54.299Z,34.80
2017-08-25T12:44:20.082Z,36.35
2017-08-25T12:46:45.836Z,36.71
2017-08-25T12:49:11.648Z,32.88
2017-08-25T12:51:37.411Z,36.43
2017-08-25T12:54:03.171Z,35.35
2017-08-25T12:56:29.066Z,35.16
2017-08-25T12:58:54.834Z,33.11
2017-08-25T13:01:20.640Z,31.51
2017-08-25T13:03:46.398Z,33.82
2017-08-25T13:06:12.154Z,35.13
2017-08-25T13:08:37.929Z,34.69
2017-08-25T13:11:03.690Z,36.31
2017-08-25T13:13:29.554Z,36.70
2017-08-25T13:15:55.311Z,33.74
2017-08-25T13:18:21.123Z,36.24
2017-08-25T13:20:46.898Z,35.68
2017-08-25T13:23:12.649Z,35.17
2017-08-25T13:25:38.427Z,34.99
2017-08-25T13:28:04.195Z,34.71
2017-08-25T13:30:29.996Z,35.78
2017-08-25T13:32:55.804Z,34.04
2017-08-25T13:35:21.587Z,33.31
2017-08-25T13:37:47.367Z,31.95
2017-08-25T13:40:13.127Z,32.41
2017-08-25T13:42:38.915Z,30.68
2017-08-25T13:45:04.679Z,32.59
2017-08-25T13:47:30.471Z,33.45
2017-08-25T13:49:56.258Z,32.16
2017-08-25T13:52:22.154Z,32.02
2017-08-25T13:54:48.801Z,32.56
2017-08-25T13:57:14.661Z,33.91
2017-08-25T13:59:40.479Z,33.56
2017-08-25T14:02:06.311Z,37.18
2017-08-25T14:04:32.068Z,33.75
2017-08-25T14:06:57.863Z,32.04
2017-08-25T14:09:23.711Z,32.65
2017-08-25T14:11:49.454Z,32.37
2017-08-25T14:14:15.232Z,33.58
2017-08-25T14:16:40.991Z,35.61
2017-08-25T14:19:06.768Z,35.74
2017-08-25T14:21:32.645Z,33.81
2017-08-25T14:23:58.395Z,35.71
2017-08-25T14:26:24.206Z,34.06
2017-08-25T14:28:49.992Z,33.38
2017-08-25T14:31:15.767Z,31.69
2017-08-25T14:33:41.563Z,31.65
2017-08-25T14:36:07.328Z,31.54
2017-08-25T14:38:33.083Z,31.21
2017-08-25T14:40:58.873Z,32.30
2017-08-25T14:43:24.621Z,30.91
2017-08-25T14:45:50.412Z,29.57
2017-08-25T14:48:16.278Z,30.98
2017-08-25T14:50:42.124Z,32.77
2017-08-25T14:53:07.908Z,33.29
2017-08-25T14:55:33.679Z,36.71
2017-08-25T14:57:59.431Z,36.42
2017-08-25T15:00:25.227Z,35.24
2017-08-25T15:02:51.018Z,34.67
2017-08-25T15:05:16.767Z,34.88
2017-08-25T15:07:42.543Z,35.65
2017-08-25T15:10:08.315Z,36.50
2017-08-25T15:12:34.143Z,38.83
2017-08-25T15:14:59.935Z,35.06
2017-08-25T15:17:25.690Z,33.12
2017-08-25T15:19:51.460Z,34.74
2017-08-25T15:22:17.211Z,34.57
2017-08-25T15:24:43.003Z,33.92
2017-08-25T15:27:08.858Z,32.66
2017-08-25T15:29:34.615Z,32.08
2017-08-25T15:32:00.403Z,33.88
2017-08-25T15:34:26.193Z,33.82
2017-08-25T15:36:51.979Z,34.06
2017-08-25T15:39:17.754Z,34.18
2017-08-25T15:41:43.546Z,33.75
2017-08-25T15:44:09.315Z,34.96
2017-08-25T15:46:35.131Z,35.45
2017-08-25T15:49:00.892Z,35.75
2017-08-25T15:51:26.661Z,37.50
2017-08-25T15:53:52.563Z,36.79
2017-08-25T15:56:18.340Z,35.97
2017-08-25T15:58:44.150Z,36.59
2017-08-25T16:01:09.908Z,37.39
2017-08-25T16:03:35.714Z,38.08
2017-08-25T16:06:01.474Z,41.49
2017-08-25T16:08:27.224Z,42.05
2017-08-25T16:10:53.009Z,43.03
2017-08-25T16:13:18.803Z,43.27
2017-08-25T16:15:44.683Z,44.11
2017-08-25T16:18:10.480Z,43.55
2017-08-25T16:20:36.244Z,44.40
2017-08-25T16:23:02.035Z,44.74
2017-08-25T16:25:27.815Z,45.02
2017-08-25T16:27:53.599Z,42.79
2017-08-25T16:30:19.380Z,43.34
2017-08-25T16:32:45.179Z,44.16
2017-08-25T16:35:10.933Z,44.28
2017-08-25T16:37:36.728Z,43.44
2017-08-25T16:40:02.495Z,43.32
2017-08-25T16:42:28.270Z,43.88
2017-08-25T16:44:54.046Z,44.39
2017-08-25T16:47:19.863Z,45.35
2017-08-25T16:49:45.707Z,46.41
2017-08-25T16:52:11.460Z,45.98
2017-08-25T16:54:37.233Z,45.24
2017-08-25T16:57:03.010Z,46.14
2017-08-25T16:59:28.758Z,46.68
2017-08-25T17:01:54.539Z,46.69
2017-08-25T17:04:20.299Z,47.25
2017-08-25T17:06:46.087Z,48.36
2017-08-25T17:09:11.876Z,47.89
2017-08-25T17:11:37.679Z,48.54
2017-08-25T17:14:03.475Z,48.45
2017-08-25T17:16:29.286Z,48.49
2017-08-25T17:18:55.043Z,48.60
2017-08-25T17:21:20.807Z,49.10
2017-08-25T17:23:46.596Z,49.44
2017-08-25T17:26:12.345Z,49.90
2017-08-25T17:28:38.203Z,50.09
2017-08-25T17:31:03.965Z,51.15
2017-08-25T17:33:29.727Z,52.03
2017-08-25T17:35:55.531Z,51.72
2017-08-25T17:38:21.299Z,51.21
2017-08-25T17:40:47.068Z,51.56
2017-08-25T17:43:12.865Z,52.24
2017-08-25T17:45:38.629Z,52.97
2017-08-25T17:48:04.401Z,54.89
2017-08-25T17:50:30.182Z,54.74
2017-08-25T17:52:55.983Z,54.77
2017-08-25T17:55:21.743Z,56.73
2017-08-25T17:57:47.561Z,57.64
2017-08-25T18:00:13.355Z,57.30
2017-08-25T18:02:39.155Z,56.97
2017-08-25T18:05:04.983Z,56.42
2017-08-25T18:07:30.731Z,58.47
2017-08-25T18:09:56.487Z,57.91
2017-08-25T18:12:22.270Z,58.32
2017-08-25T18:14:48.032Z,60.04
2017-08-25T18:17:13.907Z,60.90
2017-08-25T18:19:39.657Z,59.51
2017-08-25T18:22:05.464Z,60.89
2017-08-25T18:24:31.220Z,60.92
2017-08-25T18:26:57.099Z,61.60
2017-08-25T18:29:22.856Z,62.21
2017-08-25T18:31:48.646Z,62.99
2017-08-25T18:34:14.443Z,62.88
2017-08-25T18:36:40.274Z,62.34
2017-08-25T18:39:06.038Z,63.09
2017-08-25T18:41:31.952Z,63.31
2017-08-25T18:43:57.763Z,64.03
2017-08-25T18:46:23.524Z,63.52
2017-08-25T18:48:49.287Z,63.04
2017-08-25T18:51:15.088Z,63.85
2017-08-25T18:53:40.912Z,64.58
2017-08-25T18:56:06.799Z,64.99
2017-08-25T18:58:32.694Z,64.34
2017-08-25T19:00:58.472Z,64.49
2017-08-25T19:03:24.587Z,64.70
2017-08-25T19:05:50.375Z,65.43
2017-08-25T19:08:16.191Z,65.75
2017-08-25T19:10:41.988Z,66.67
2017-08-25T19:13:07.751Z,67.38
2017-08-25T19:15:33.528Z,66.58
2017-08-25T19:17:59.314Z,67.15
2017-08-25T19:20:25.921Z,67.87
2017-08-25T19:22:51.695Z,67.09
2017-08-25T19:25:17.451Z,67.12
2017-08-25T19:27:43.399Z,67.60
2017-08-25T19:30:09.151Z,67.06
2017-08-25T19:32:34.966Z,67.59
2017-08-25T19:35:00.764Z,69.36
2017-08-25T19:37:26.526Z,69.96
2017-08-25T19:39:52.279Z,70.04
2017-08-25T19:42:18.115Z,69.98
2017-08-25T19:44:43.879Z,70.25
2017-08-25T19:47:09.627Z,69.92
2017-08-25T19:49:35.691Z,71.01
2017-08-25T19:52:01.442Z,70.68
2017-08-25T19:54:27.230Z,71.21
2017-08-25T19:56:53.119Z,71.80
2017-08-25T19:59:18.871Z,71.42
2017-08-25T20:01:44.771Z,72.13
2017-08-25T20:04:10.568Z,72.50
2017-08-25T20:06:36.359Z,72.88
2017-08-25T20:09:02.242Z,72.78
2017-08-25T20:11:29.110Z,72.41
2017-08-25T20:13:54.899Z,72.59
2017-08-25T20:16:20.730Z,73.02
2017-08-25T20:18:46.574Z,73.20
2017-08-25T20:21:12.362Z,73.08
2017-08-25T20:23:38.149Z,73.80
2017-08-25T20:26:03.903Z,74.14
2017-08-25T20:28:29.707Z,73.69
2017-08-25T20:30:55.496Z,74.31
2017-08-25T20:33:21.251Z,74.42
2017-08-25T20:35:47.061Z,74.93
2017-08-25T20:38:12.811Z,75.02
2017-08-25T20:40:38.583Z,74.93
2017-08-25T20:43:04.423Z,74.65
2017-08-25T20:45:30.210Z,75.51
2017-08-25T20:47:55.999Z,75.57
2017-08-25T20:50:21.778Z,75.32
2017-08-25T20:52:47.544Z,75.19
2017-08-25T20:55:13.331Z,75.00
2017-08-25T20:57:39.494Z,75.52
2017-08-25T21:00:05.439Z,75.86
2017-08-25T21:02:31.207Z,75.93
2017-08-25T21:04:57.000Z,75.62
2017-08-25T21:07:22.775Z,75.52
2017-08-25T21:09:48.548Z,75.44
2017-08-25T21:12:14.320Z,75.98
2017-08-25T21:14:40.131Z,75.97
2017-08-25T21:17:05.887Z,76.65
2017-08-25T21:19:31.718Z,77.59
2017-08-25T21:21:57.469Z,76.71
2017-08-25T21:24:23.234Z,76.92
2017-08-25T21:26:49.056Z,76.34
2017-08-25T21:29:14.818Z,76.92
2017-08-25T21:31:40.617Z,76.34
2017-08-25T21:34:07.735Z,76.17
2017-08-25T21:36:33.496Z,76.29
2017-08-25T21:38:59.270Z,76.60
2017-08-25T21:41:25.065Z,77.34
2017-08-25T21:43:50.867Z,77.29
2017-08-25T21:46:16.624Z,77.64
2017-08-25T21:48:42.378Z,77.78
2017-08-25T21:51:08.166Z,77.90
2017-08-25T21:53:33.951Z,78.10
2017-08-25T21:55:59.727Z,78.55
2017-08-25T21:58:25.499Z,78.41
2017-08-25T22:00:51.299Z,78.13
2017-08-25T22:03:17.052Z,78.87
2017-08-25T22:05:42.821Z,79.31
2017-08-25T22:10:34.273Z,80.07
2017-08-25T22:13:00.040Z,79.03
2017-08-25T22:15:25.831Z,79.50
2017-08-25T22:17:51.591Z,79.07
2017-08-25T22:20:17.376Z,79.65
2017-08-25T22:22:43.143Z,79.26
2017-08-25T22:25:09.307Z,79.35
2017-08-25T22:27:35.091Z,79.03
2017-08-25T22:30:01.549Z,78.94
2017-08-25T22:32:27.340Z,79.41
2017-08-25T22:34:53.104Z,79.98
2017-08-25T22:37:18.888Z,80.70
2017-08-25T22:39:44.794Z,79.63
2017-08-25T22:42:10.580Z,81.80
2017-08-25T22:44:36.340Z,81.03
2017-08-25T22:47:02.114Z,80.47
2017-08-25T22:49:27.895Z,79.65
2017-08-25T22:51:53.651Z,79.91
2017-08-25T22:54:19.443Z,80.24
2017-08-25T22:56:45.211Z,81.05
2017-08-25T22:59:10.980Z,81.35
2017-08-25T23:01:36.786Z,80.99
2017-08-25T23:04:02.559Z,81.58
2017-08-25T23:06:28.342Z,81.59
2017-08-25T23:08:54.127Z,81.61
2017-08-25T23:11:19.907Z,81.21
2017-08-25T23:13:45.703Z,81.11
2017-08-25T23:16:11.536Z,81.46
2017-08-25T23:18:37.302Z,80.92
2017-08-25T23:21:03.067Z,80.67
2017-08-25T23:23:28.866Z,80.69
2017-08-25T23:25:54.638Z,81.52
2017-08-25T23:28:20.398Z,81.37
2017-08-25T23:30:46.158Z,81.30
2017-08-25T23:33:11.946Z,81.04
2017-08-25T23:35:37.725Z,81.81
2017-08-25T23:38:03.507Z,81.06
2017-08-25T23:40:29.271Z,80.93
2017-08-25T23:42:55.082Z,81.01
2017-08-25T23:45:20.852Z,80.72
2017-08-25T23:47:46.695Z,80.86
2017-08-25T23:50:12.491Z,81.40
2017-08-25T23:52:38.254Z,82.08
2017-08-25T23:55:04.067Z,82.47
2017-08-25T23:57:29.855Z,81.50
2017-08-25T23:59:55.607Z,82.03
